createdAt,value
2018-02-27T00:00:10.280Z,-3.70
2018-02-27T00:02:37.900Z,-3.70
2018-02-27T00:05:05.484Z,-3.70
2018-02-27T00:07:33.082Z,-3.70
2018-02-27T00:10:01.426Z,-3.70
2018-02-27T00:12:29.001Z,-3.70
2018-02-27T00:14:56.599Z,-3.70
2018-02-27T00:17:24.946Z,-3.70
2018-02-27T00:19:52.527Z,-3.80
2018-02-27T00:22:20.107Z,-3.80
2018-02-27T00:24:48.464Z,-3.80
2018-02-27T00:27:16.092Z,-3.80
2018-02-27T00:29:43.680Z,-3.70
2018-02-27T00:32:11.285Z,-3.80
2018-02-27T00:34:39.634Z,-3.80
2018-02-27T00:37:07.254Z,-3.80
2018-02-27T00:39:34.862Z,-3.80
2018-02-27T00:42:02.468Z,-3.80
2018-02-27T00:44:30.810Z,-3.80
2018-02-27T00:46:58.400Z,-3.90
2018-02-27T00:49:26.731Z,-3.80
2018-02-27T00:51:54.300Z,-3.90
2018-02-27T00:54:21.874Z,-3.80
2018-02-27T00:56:49.430Z,-3.80
2018-02-27T00:59:17.017Z,-3.80
2018-02-27T01:01:44.603Z,-3.90
2018-02-27T01:04:12.203Z,-3.90
2018-02-27T01:06:39.787Z,-4.00
2018-02-27T01:09:07.391Z,-4.00
2018-02-27T01:11:34.956Z,-4.00
2018-02-27T01:14:02.556Z,-4.00
2018-02-27T01:16:30.162Z,-4.00
2018-02-27T01:18:57.752Z,-4.00
2018-02-27T01:21:25.334Z,-4.10
2018-02-27T01:23:53.712Z,-4.10
2018-02-27T01:26:22.054Z,-4.10
2018-02-27T01:28:49.626Z,-4.10
2018-02-27T01:31:17.190Z,-4.10
2018-02-27T01:33:44.761Z,-4.10
2018-02-27T01:36:12.315Z,-4.00
2018-02-27T01:38:39.888Z,-4.10
2018-02-27T01:41:07.473Z,-4.10
2018-02-27T01:43:35.063Z,-4.10
2018-02-27T01:46:02.665Z,-4.20
2018-02-27T01:48:30.235Z,-4.20
2018-02-27T01:51:09.646Z,-4.10
2018-02-27T01:53:37.215Z,-4.20
2018-02-27T01:56:04.803Z,-4.20
2018-02-27T01:58:32.457Z,-4.20
2018-02-27T02:01:01.215Z,-4.20
2018-02-27T02:03:29.542Z,-4.20
2018-02-27T02:05:57.134Z,-4.20
2018-02-27T02:08:24.716Z,-4.30
2018-02-27T02:10:53.102Z,-4.30
2018-02-27T02:13:21.451Z,-4.40
2018-02-27T02:15:49.079Z,-4.40
2018-02-27T02:18:16.687Z,-4.30
2018-02-27T02:20:44.297Z,-4.40
2018-02-27T02:23:11.889Z,-4.40
2018-02-27T02:25:39.497Z,-4.40
2018-02-27T02:28:07.125Z,-4.50
2018-02-27T02:30:34.685Z,-4.50
2018-02-27T02:33:02.260Z,-4.50
2018-02-27T02:35:29.849Z,-4.60
2018-02-27T02:37:57.456Z,-4.60
2018-02-27T02:40:25.020Z,-4.60
2018-02-27T02:42:52.584Z,-4.60
2018-02-27T02:45:20.156Z,-4.70
2018-02-27T02:47:47.740Z,-4.70
2018-02-27T02:50:16.192Z,-4.70
2018-02-27T02:52:44.547Z,-4.70
2018-02-27T02:55:12.152Z,-4.70
2018-02-27T02:57:39.739Z,-4.70
2018-02-27T03:00:07.350Z,-4.70
2018-02-27T03:02:34.967Z,-4.70
2018-02-27T03:05:03.333Z,-4.80
2018-02-27T03:07:30.939Z,-4.80
2018-02-27T03:09:58.615Z,-4.80
2018-02-27T03:12:28.023Z,-4.80
2018-02-27T03:14:55.617Z,-4.80
2018-02-27T03:17:24.034Z,-4.90
2018-02-27T03:19:51.625Z,-4.90
2018-02-27T03:22:19.254Z,-5.00
2018-02-27T03:24:46.905Z,-5.00
2018-02-27T03:27:15.290Z,-5.00
2018-02-27T03:29:42.912Z,-5.00
2018-02-27T03:32:10.506Z,-4.90
2018-02-27T03:34:38.866Z,-5.00
2018-02-27T03:37:07.014Z,-5.00
2018-02-27T03:39:34.671Z,-5.00
2018-02-27T03:42:02.296Z,-5.10
2018-02-27T03:44:30.682Z,-5.10
2018-02-27T03:46:59.085Z,-5.10
2018-02-27T03:49:26.711Z,-5.20
2018-02-27T03:51:54.299Z,-5.20
2018-02-27T03:54:22.647Z,-5.30
2018-02-27T03:56:50.270Z,-5.40
2018-02-27T03:59:17.855Z,-5.40
2018-02-27T04:01:45.432Z,-5.50
2018-02-27T04:04:13.044Z,-5.60
2018-02-27T04:06:41.389Z,-5.70
2018-02-27T04:09:08.993Z,-5.70
2018-02-27T04:11:37.361Z,-5.70
2018-02-27T04:14:04.968Z,-5.80
2018-02-27T04:16:32.614Z,-5.80
2018-02-27T04:19:00.971Z,-5.80
2018-02-27T04:21:28.562Z,-5.80
2018-02-27T04:23:56.888Z,-5.70
2018-02-27T04:26:24.475Z,-5.80
2018-02-27T04:28:52.061Z,-5.70
2018-02-27T04:31:20.406Z,-5.70
2018-02-27T04:33:48.005Z,-5.80
2018-02-27T04:36:16.342Z,-5.70
2018-02-27T04:38:43.918Z,-5.80
2018-02-27T04:41:11.503Z,-5.70
2018-02-27T04:43:39.061Z,-5.80
2018-02-27T04:46:06.635Z,-5.80
2018-02-27T04:48:35.425Z,-5.90
2018-02-27T04:51:03.010Z,-5.90
2018-02-27T04:53:31.351Z,-5.90
2018-02-27T04:55:58.905Z,-6.00
2018-02-27T04:58:26.520Z,-6.00
2018-02-27T05:00:54.946Z,-6.10
2018-02-27T05:03:22.530Z,-6.20
2018-02-27T05:05:50.184Z,-6.20
2018-02-27T05:08:17.753Z,-6.20
2018-02-27T05:10:45.361Z,-6.10
2018-02-27T05:13:12.941Z,-6.10
2018-02-27T05:15:41.793Z,-6.00
2018-02-27T05:18:09.410Z,-6.00
2018-02-27T05:20:36.991Z,-6.00
2018-02-27T05:23:04.601Z,-6.00
2018-02-27T05:25:32.170Z,-6.10
2018-02-27T05:28:00.572Z,-6.00
2018-02-27T05:30:28.919Z,-6.00
2018-02-27T05:32:56.496Z,-6.00
2018-02-27T05:35:24.092Z,-6.00
2018-02-27T05:37:52.466Z,-6.00
2018-02-27T05:40:20.876Z,-6.00
2018-02-27T05:42:48.500Z,-6.00
2018-02-27T05:45:16.065Z,-6.00
2018-02-27T05:47:44.494Z,-6.00
2018-02-27T05:50:12.101Z,-6.00
2018-02-27T05:52:39.743Z,-6.00
2018-02-27T05:55:07.325Z,-6.00
2018-02-27T05:57:34.911Z,-6.00
2018-02-27T06:00:02.488Z,-6.00
2018-02-27T06:02:30.833Z,-6.00
2018-02-27T06:04:58.412Z,-6.10
2018-02-27T06:07:25.997Z,-6.00
2018-02-27T06:09:53.592Z,-6.00
2018-02-27T06:12:21.203Z,-6.00
2018-02-27T06:14:48.775Z,-6.00
2018-02-27T06:17:16.386Z,-6.00
2018-02-27T06:19:44.005Z,-6.00
2018-02-27T06:22:11.599Z,-6.00
2018-02-27T06:24:39.938Z,-6.00
2018-02-27T06:27:07.527Z,-6.00
2018-02-27T06:29:35.139Z,-5.90
2018-02-27T06:32:02.731Z,-5.90
2018-02-27T06:34:30.331Z,-5.90
2018-02-27T06:36:58.757Z,-5.90
2018-02-27T06:39:26.405Z,-5.90
2018-02-27T06:41:53.985Z,-5.90
2018-02-27T06:44:21.622Z,-5.90
2018-02-27T06:46:49.977Z,-5.80
2018-02-27T06:49:17.569Z,-5.90
2018-02-27T06:51:45.961Z,-5.80
2018-02-27T06:54:13.583Z,-5.80
2018-02-27T06:56:41.184Z,-5.80
2018-02-27T06:59:09.528Z,-5.80
2018-02-27T07:01:37.116Z,-5.80
2018-02-27T07:04:04.702Z,-5.70
2018-02-27T07:06:33.076Z,-5.70
2018-02-27T07:09:01.421Z,-5.70
2018-02-27T07:11:29.043Z,-5.70
2018-02-27T07:13:57.413Z,-5.60
2018-02-27T07:16:25.821Z,-5.50
2018-02-27T07:18:54.190Z,-5.50
2018-02-27T07:21:21.783Z,-5.50
2018-02-27T07:23:49.393Z,-5.40
2018-02-27T07:26:18.415Z,-5.40
2018-02-27T07:28:46.074Z,-5.30
2018-02-27T07:31:14.500Z,-5.20
2018-02-27T07:33:42.101Z,-5.30
2018-02-27T07:36:09.712Z,-5.10
2018-02-27T07:38:37.300Z,-5.00
2018-02-27T07:41:04.888Z,-5.00
2018-02-27T07:43:32.520Z,-4.90
2018-02-27T07:46:00.095Z,-4.90
2018-02-27T07:48:27.704Z,-4.80
2018-02-27T07:50:55.310Z,-4.80
2018-02-27T07:53:22.944Z,-4.80
2018-02-27T07:55:51.326Z,-4.70
2018-02-27T07:58:19.659Z,-4.60
2018-02-27T08:00:47.306Z,-4.60
2018-02-27T08:03:14.913Z,-4.60
2018-02-27T08:05:42.547Z,-4.50
2018-02-27T08:08:10.172Z,-4.50
2018-02-27T08:10:37.770Z,-4.40
2018-02-27T08:13:05.336Z,-4.40
2018-02-27T08:15:32.932Z,-4.40
2018-02-27T08:18:00.508Z,-4.40
2018-02-27T08:20:28.128Z,-4.30
2018-02-27T08:22:55.760Z,-4.30
2018-02-27T08:25:23.330Z,-4.30
2018-02-27T08:27:51.752Z,-4.10
2018-02-27T08:30:19.363Z,-4.10
2018-02-27T08:32:46.969Z,-4.00
2018-02-27T08:35:14.591Z,-4.00
2018-02-27T08:37:42.269Z,-4.00
2018-02-27T08:40:09.813Z,-3.90
2018-02-27T08:42:37.462Z,-3.90
2018-02-27T08:45:05.045Z,-3.80
2018-02-27T08:47:32.620Z,-3.70
2018-02-27T08:50:00.198Z,-3.60
2018-02-27T08:52:28.648Z,-3.70
2018-02-27T08:54:56.284Z,-3.70
2018-02-27T08:57:23.888Z,-3.60
2018-02-27T08:59:51.504Z,-3.60
2018-02-27T09:02:19.078Z,-3.50
2018-02-27T09:04:46.666Z,-3.50
2018-02-27T09:07:14.256Z,-3.40
2018-02-27T09:09:42.549Z,-3.50
2018-02-27T09:12:10.144Z,-3.50
2018-02-27T09:14:37.817Z,-3.40
2018-02-27T09:17:05.356Z,-3.40
2018-02-27T09:19:33.711Z,-3.30
2018-02-27T09:22:01.293Z,-3.30
2018-02-27T09:24:28.859Z,-3.30
2018-02-27T09:26:56.479Z,-3.20
2018-02-27T09:29:24.068Z,-3.20
2018-02-27T09:31:51.682Z,-3.10
2018-02-27T09:34:19.277Z,-3.10
2018-02-27T09:36:46.852Z,-3.00
2018-02-27T09:39:14.442Z,-3.00
2018-02-27T09:41:42.020Z,-3.00
2018-02-27T09:44:09.613Z,-3.00
2018-02-27T09:46:37.236Z,-2.80
2018-02-27T09:49:04.828Z,-2.80
2018-02-27T09:51:32.390Z,-2.70
2018-02-27T09:54:00.774Z,-2.70
2018-02-27T09:56:29.109Z,-2.70
2018-02-27T09:58:56.673Z,-2.80
2018-02-27T10:01:24.275Z,-2.70
2018-02-27T10:03:51.939Z,-2.50
2018-02-27T10:06:19.514Z,-2.40
2018-02-27T10:08:47.852Z,-2.40
2018-02-27T10:11:15.449Z,-2.40
2018-02-27T10:13:43.821Z,-2.30
2018-02-27T10:16:11.419Z,-2.30
2018-02-27T10:18:38.989Z,-2.10
2018-02-27T10:21:06.562Z,-2.00
2018-02-27T10:23:34.149Z,-2.00
2018-02-27T10:26:01.743Z,-1.90
2018-02-27T10:28:29.349Z,-1.70
2018-02-27T10:30:56.946Z,-1.60
2018-02-27T10:33:24.526Z,-1.60
2018-02-27T10:35:52.235Z,-1.60
2018-02-27T10:38:20.930Z,-1.70
2018-02-27T10:40:48.571Z,-1.70
2018-02-27T10:43:18.011Z,-1.70
2018-02-27T10:45:45.735Z,-1.70
2018-02-27T10:48:13.300Z,-1.60
2018-02-27T10:50:40.914Z,-1.50
2018-02-27T10:53:08.586Z,-1.60
2018-02-27T10:55:36.173Z,-1.30
2018-02-27T10:58:03.757Z,-1.10
2018-02-27T11:00:37.051Z,-1.00
2018-02-27T11:03:04.770Z,-0.90
2018-02-27T11:05:32.368Z,-0.90
2018-02-27T11:08:00.378Z,-0.70
2018-02-27T11:10:27.964Z,-0.60
2018-02-27T11:12:55.562Z,-0.50
2018-02-27T11:15:23.144Z,-0.40
2018-02-27T11:17:51.550Z,-0.30
2018-02-27T11:20:19.166Z,-0.40
2018-02-27T11:22:46.760Z,-0.30
2018-02-27T11:25:14.379Z,-0.20
2018-02-27T11:27:41.970Z,-0.20
2018-02-27T11:30:09.571Z,0.00
2018-02-27T11:32:37.171Z,0.10
2018-02-27T11:35:05.501Z,0.20
2018-02-27T11:37:33.111Z,0.20
2018-02-27T11:40:01.477Z,1.10
2018-02-27T11:42:29.095Z,1.10
2018-02-27T11:44:56.648Z,1.20
2018-02-27T11:47:24.218Z,0.80
2018-02-27T11:49:51.840Z,0.80
2018-02-27T11:52:19.414Z,0.70
2018-02-27T11:54:47.762Z,0.40
2018-02-27T11:57:15.394Z,0.40
2018-02-27T11:59:42.982Z,0.20
2018-02-27T12:02:10.545Z,0.10
2018-02-27T12:04:38.144Z,-0.30
2018-02-27T12:07:05.746Z,-0.30
2018-02-27T12:09:33.310Z,-0.30
2018-02-27T12:12:00.909Z,-0.40
2018-02-27T12:14:28.505Z,-0.40
2018-02-27T12:16:56.107Z,-0.30
2018-02-27T12:19:23.739Z,-0.30
2018-02-27T12:21:51.345Z,-0.20
2018-02-27T12:24:18.937Z,-0.40
2018-02-27T12:26:46.516Z,-0.30
2018-02-27T12:29:14.142Z,-0.20
2018-02-27T12:31:41.724Z,0.10
2018-02-27T12:34:09.298Z,0.60
2018-02-27T12:36:36.894Z,0.80
2018-02-27T12:39:04.505Z,1.00
2018-02-27T12:41:32.080Z,0.80
2018-02-27T12:43:59.659Z,0.50
2018-02-27T12:46:27.264Z,0.40
2018-02-27T12:48:55.657Z,0.70
2018-02-27T12:51:24.020Z,0.90
2018-02-27T12:53:51.589Z,0.90
2018-02-27T12:56:19.927Z,1.00
2018-02-27T12:58:47.520Z,1.00
2018-02-27T13:01:15.123Z,0.60
2018-02-27T13:03:42.712Z,0.30
2018-02-27T13:06:11.489Z,0.50
2018-02-27T13:08:41.288Z,0.80
2018-02-27T13:11:09.619Z,1.20
2018-02-27T13:13:37.200Z,1.10
2018-02-27T13:16:04.784Z,1.20
2018-02-27T13:18:33.131Z,1.90
2018-02-27T13:21:00.700Z,1.90
2018-02-27T13:23:28.311Z,2.10
2018-02-27T13:25:55.913Z,2.00
2018-02-27T13:28:23.519Z,1.70
2018-02-27T13:30:51.130Z,1.70
2018-02-27T13:33:18.751Z,2.00
2018-02-27T13:35:46.361Z,2.00
2018-02-27T13:38:13.945Z,1.90
2018-02-27T13:40:41.529Z,1.90
2018-02-27T13:43:09.143Z,1.80
2018-02-27T13:45:37.664Z,2.00
2018-02-27T13:48:05.834Z,1.80
2018-02-27T13:50:33.456Z,2.00
2018-02-27T13:53:01.832Z,2.30
2018-02-27T13:55:30.196Z,2.40
2018-02-27T13:57:57.807Z,2.40
2018-02-27T14:00:26.150Z,2.40
2018-02-27T14:02:53.745Z,2.40
2018-02-27T14:05:22.080Z,2.30
2018-02-27T14:07:49.674Z,2.20
2018-02-27T14:10:17.321Z,2.20
2018-02-27T14:12:44.919Z,1.90
2018-02-27T14:15:13.253Z,1.90
2018-02-27T14:17:41.616Z,1.90
2018-02-27T14:20:09.214Z,2.00
2018-02-27T14:22:36.796Z,2.10
2018-02-27T14:25:04.357Z,2.10
2018-02-27T14:27:31.976Z,2.40
2018-02-27T14:29:59.561Z,2.60
2018-02-27T14:32:27.153Z,2.40
2018-02-27T14:34:54.933Z,2.20
2018-02-27T14:37:23.593Z,2.00
2018-02-27T14:39:51.963Z,1.60
2018-02-27T14:42:19.664Z,1.60
2018-02-27T14:44:48.048Z,0.80
2018-02-27T14:47:15.637Z,0.80
2018-02-27T14:49:44.651Z,0.50
2018-02-27T14:52:12.252Z,0.50
2018-02-27T14:54:39.953Z,0.30
2018-02-27T14:57:08.310Z,0.60
2018-02-27T14:59:35.893Z,0.50
2018-02-27T15:02:03.508Z,1.10
2018-02-27T15:04:31.092Z,1.40
2018-02-27T15:06:58.694Z,1.80
2018-02-27T15:09:28.004Z,1.60
2018-02-27T15:11:56.500Z,1.60
2018-02-27T15:14:24.076Z,2.10
2018-02-27T15:16:51.673Z,2.80
2018-02-27T15:19:19.324Z,3.30
2018-02-27T15:21:46.942Z,3.60
2018-02-27T15:24:14.548Z,3.50
2018-02-27T15:26:42.192Z,3.30
2018-02-27T15:29:10.521Z,2.60
2018-02-27T15:31:38.122Z,2.60
2018-02-27T15:34:06.464Z,1.70
2018-02-27T15:36:34.127Z,1.70
2018-02-27T15:39:01.715Z,1.20
2018-02-27T15:41:29.309Z,0.90
2018-02-27T15:43:57.681Z,0.60
2018-02-27T15:46:26.047Z,0.60
2018-02-27T15:48:53.639Z,0.50
2018-02-27T15:51:22.030Z,0.80
2018-02-27T15:53:49.638Z,0.80
2018-02-27T15:56:18.028Z,0.70
2018-02-27T15:58:45.626Z,0.70
2018-02-27T16:01:13.253Z,0.90
2018-02-27T16:03:40.892Z,0.80
2018-02-27T16:06:08.492Z,0.90
2018-02-27T16:08:36.058Z,0.70
2018-02-27T16:11:03.644Z,0.70
2018-02-27T16:13:31.256Z,0.50
2018-02-27T16:15:58.839Z,0.60
2018-02-27T16:18:26.427Z,0.60
2018-02-27T16:20:54.045Z,0.40
2018-02-27T16:23:21.741Z,0.20
2018-02-27T16:25:49.311Z,0.10
2018-02-27T16:28:16.916Z,-0.10
2018-02-27T16:30:44.533Z,-0.10
2018-02-27T16:33:12.118Z,0.00
2018-02-27T16:35:39.702Z,0.00
2018-02-27T16:38:07.287Z,0.10
2018-02-27T16:40:35.636Z,-0.10
2018-02-27T16:43:03.236Z,-0.10
2018-02-27T16:45:32.413Z,-0.40
2018-02-27T16:47:59.952Z,-0.40
2018-02-27T16:50:27.548Z,-0.50
2018-02-27T16:52:55.142Z,-0.60
2018-02-27T16:55:23.477Z,-0.80
2018-02-27T16:57:51.083Z,-0.80
2018-02-27T17:00:18.675Z,-0.90
2018-02-27T17:02:46.281Z,-1.00
2018-02-27T17:05:13.868Z,-1.00
2018-02-27T17:07:42.242Z,-1.10
2018-02-27T17:10:10.592Z,-1.10
2018-02-27T17:12:38.173Z,-1.10
2018-02-27T17:15:05.811Z,-1.20
2018-02-27T17:17:33.424Z,-1.30
2018-02-27T17:20:01.026Z,-1.30
2018-02-27T17:22:28.646Z,-1.30
2018-02-27T17:24:57.036Z,-1.40
2018-02-27T17:27:24.642Z,-1.40
2018-02-27T17:29:52.242Z,-1.40
2018-02-27T17:32:19.824Z,-1.50
2018-02-27T17:34:47.422Z,-1.50
2018-02-27T17:37:15.037Z,-1.60
2018-02-27T17:39:42.606Z,-1.60
2018-02-27T17:42:10.219Z,-1.60
2018-02-27T17:44:37.788Z,-1.60
2018-02-27T17:47:05.402Z,-1.70
2018-02-27T17:49:33.013Z,-1.70
2018-02-27T17:52:00.609Z,-1.70
2018-02-27T17:54:28.200Z,-1.70
2018-02-27T17:56:55.803Z,-1.80
2018-02-27T17:59:24.138Z,-1.80
2018-02-27T18:01:51.740Z,-1.80
2018-02-27T18:04:20.110Z,-1.80
2018-02-27T18:06:47.722Z,-1.80
2018-02-27T18:09:15.319Z,-1.90
2018-02-27T18:11:42.941Z,-1.90
2018-02-27T18:14:10.534Z,-1.90
2018-02-27T18:16:38.136Z,-1.90
2018-02-27T18:19:05.726Z,-1.90
2018-02-27T18:21:33.336Z,-1.90
2018-02-27T18:24:00.932Z,-1.90
2018-02-27T18:26:28.540Z,-2.00
2018-02-27T18:28:56.158Z,-2.00
2018-02-27T18:31:23.761Z,-2.00
2018-02-27T18:33:51.351Z,-2.00
2018-02-27T18:36:18.971Z,-2.10
2018-02-27T18:38:46.660Z,-2.20
2018-02-27T18:41:14.272Z,-2.20
2018-02-27T18:43:42.008Z,-2.20
2018-02-27T18:46:09.580Z,-2.30
2018-02-27T18:48:37.206Z,-2.40
2018-02-27T18:51:05.568Z,-2.50
2018-02-27T18:53:33.148Z,-2.50
2018-02-27T18:56:01.505Z,-2.60
2018-02-27T18:58:29.112Z,-2.60
2018-02-27T19:00:57.474Z,-2.60
2018-02-27T19:03:25.062Z,-2.70
2018-02-27T19:05:52.687Z,-2.70
2018-02-27T19:08:20.661Z,-2.70
2018-02-27T19:10:48.254Z,-2.80
2018-02-27T19:13:15.845Z,-2.70
2018-02-27T19:15:43.745Z,-2.70
2018-02-27T19:18:11.335Z,-2.70
2018-02-27T19:20:38.921Z,-2.80
2018-02-27T19:23:06.512Z,-2.80
2018-02-27T19:25:34.116Z,-2.80
2018-02-27T19:28:01.735Z,-2.90
2018-02-27T19:30:29.336Z,-2.90
2018-02-27T19:32:56.904Z,-3.00
2018-02-27T19:35:24.504Z,-3.00
2018-02-27T19:37:52.891Z,-3.00
2018-02-27T19:40:21.248Z,-3.10
2018-02-27T19:42:50.814Z,-3.10
2018-02-27T19:45:18.397Z,-3.10
2018-02-27T19:47:45.979Z,-3.10
2018-02-27T19:50:13.619Z,-3.10
2018-02-27T19:52:41.212Z,-3.10
2018-02-27T19:55:08.821Z,-3.10
2018-02-27T19:57:36.389Z,-3.10
2018-02-27T20:00:04.776Z,-3.20
2018-02-27T20:02:32.362Z,-3.20
2018-02-27T20:05:00.365Z,-3.20
2018-02-27T20:07:27.972Z,-3.20
2018-02-27T20:09:56.349Z,-3.40
2018-02-27T20:12:23.928Z,-3.40
2018-02-27T20:14:51.520Z,-3.40
2018-02-27T20:17:19.115Z,-3.40
2018-02-27T20:19:46.757Z,-3.40
2018-02-27T20:22:14.388Z,-3.40
2018-02-27T20:24:41.980Z,-3.60
2018-02-27T20:27:09.560Z,-3.60
2018-02-27T20:29:37.159Z,-3.60
2018-02-27T20:32:04.831Z,-3.60
2018-02-27T20:34:33.348Z,-3.60
2018-02-27T20:37:00.941Z,-3.70
2018-02-27T20:39:28.568Z,-3.70
2018-02-27T20:41:56.933Z,-3.70
2018-02-27T20:44:25.295Z,-3.70
2018-02-27T20:46:53.764Z,-3.70
2018-02-27T20:49:22.096Z,-3.70
2018-02-27T20:51:49.728Z,-3.80
2018-02-27T20:54:17.380Z,-3.80
2018-02-27T20:56:44.958Z,-3.80
2018-02-27T20:59:12.539Z,-3.80
2018-02-27T21:01:40.105Z,-3.80
2018-02-27T21:04:08.484Z,-3.90
2018-02-27T21:06:36.167Z,-3.90
2018-02-27T21:09:04.547Z,-3.80
2018-02-27T21:11:32.126Z,-3.90
2018-02-27T21:14:00.484Z,-4.00
2018-02-27T21:16:28.102Z,-4.00
2018-02-27T21:18:56.529Z,-4.00
2018-02-27T21:21:24.133Z,-4.10
2018-02-27T21:23:51.705Z,-4.10
2018-02-27T21:26:19.288Z,-4.00
2018-02-27T21:28:46.880Z,-4.10
2018-02-27T21:31:14.475Z,-4.10
2018-02-27T21:33:42.848Z,-4.10
2018-02-27T21:36:10.494Z,-4.10
2018-02-27T21:38:38.076Z,-4.10
2018-02-27T21:41:05.790Z,-4.20
2018-02-27T21:43:34.181Z,-4.30
2018-02-27T21:46:01.808Z,-4.30
2018-02-27T21:48:30.170Z,-4.30
2018-02-27T21:50:58.653Z,-4.30
2018-02-27T21:53:26.240Z,-4.20
2018-02-27T21:55:53.824Z,-4.30
2018-02-27T21:58:21.419Z,-4.30
2018-02-27T22:00:48.989Z,-4.30
2018-02-27T22:03:16.622Z,-4.40
2018-02-27T22:05:44.218Z,-4.40
2018-02-27T22:08:11.817Z,-4.40
2018-02-27T22:10:39.426Z,-4.40
2018-02-27T22:13:07.026Z,-4.40
2018-02-27T22:15:34.678Z,-4.40
2018-02-27T22:18:02.276Z,-4.40
2018-02-27T22:20:30.761Z,-4.40
2018-02-27T22:22:58.350Z,-4.50
2018-02-27T22:25:26.714Z,-4.50
2018-02-27T22:27:54.312Z,-4.50
2018-02-27T22:30:21.893Z,-4.50
2018-02-27T22:32:49.486Z,-4.50
2018-02-27T22:35:17.070Z,-4.50
2018-02-27T22:37:44.654Z,-4.60
2018-02-27T22:40:12.236Z,-4.60
2018-02-27T22:42:39.855Z,-4.60
2018-02-27T22:45:07.434Z,-4.60
2018-02-27T22:47:35.033Z,-4.60
2018-02-27T22:50:02.615Z,-4.70
2018-02-27T22:52:30.822Z,-4.70
2018-02-27T22:54:58.394Z,-4.70
2018-02-27T22:57:25.997Z,-4.70
2018-02-27T22:59:54.492Z,-4.80
2018-02-27T23:02:22.060Z,-4.80
2018-02-27T23:04:49.625Z,-4.80
2018-02-27T23:07:17.219Z,-4.80
2018-02-27T23:09:46.253Z,-4.80
2018-02-27T23:12:13.832Z,-4.80
2018-02-27T23:14:42.207Z,-4.80
2018-02-27T23:17:09.806Z,-4.90
2018-02-27T23:19:37.382Z,-4.90
2018-02-27T23:22:04.949Z,-4.90
2018-02-27T23:24:35.325Z,-4.90
2018-02-27T23:27:04.336Z,-4.90
2018-02-27T23:29:32.093Z,-4.90
2018-02-27T23:32:00.567Z,-4.90
2018-02-27T23:34:32.087Z,-5.00
2018-02-27T23:36:59.708Z,-5.00
2018-02-27T23:39:27.323Z,-5.00
2018-02-27T23:41:55.678Z,-5.00
2018-02-27T23:44:23.243Z,-5.10
2018-02-27T23:46:50.845Z,-5.10
2018-02-27T23:49:18.426Z,-5.10
2018-02-27T23:51:46.932Z,-5.10
2018-02-27T23:54:15.293Z,-5.10
2018-02-27T23:56:42.868Z,-5.10
2018-02-27T23:59:11.242Z,-5.00
